sensor_id;sensor_type;location;lat;lon;timestamp;P1;durP1;ratioP1;P2;durP2;ratioP2
5841;SDS011;2947;52.276;9.946;2024-03-08T00:00:04;32.93;;;14.10;;
5841;SDS011;2947;52.276;9.946;2024-03-08T00:02:38;29.60;;;13.50;;
5841;SDS011;2947;52.276;9.946;2024-03-08T00:05:05;28.10;;;14.67;;
5841;SDS011;2947;52.276;9.946;2024-03-08T00:07:33;28.10;;;14.20;;
5841;SDS011;2947;52.276;9.946;2024-03-08T00:10:06;33.50;;;14.70;;
5841;SDS011;2947;52.276;9.946;2024-03-08T00:12:45;28.77;;;14.37;;
5841;SDS011;2947;52.276;9.946;2024-03-08T00:15:11;28.03;;;15.20;;
5841;SDS011;2947;52.276;9.946;2024-03-08T00:17:40;28.37;;;14.27;;
5841;SDS011;2947;52.276;9.946;2024-03-08T00:20:06;32.50;;;15.90;;
5841;SDS011;2947;52.276;9.946;2024-03-08T00:22:36;31.13;;;15.10;;
5841;SDS011;2947;52.276;9.946;2024-03-08T00:25:03;32.77;;;14.60;;
5841;SDS011;2947;52.276;9.946;2024-03-08T00:27:30;25.63;;;13.67;;
5841;SDS011;2947;52.276;9.946;2024-03-08T00:29:59;30.20;;;13.57;;
5841;SDS011;2947;52.276;9.946;2024-03-08T00:32:25;31.27;;;14.63;;
5841;SDS011;2947;52.276;9.946;2024-03-08T00:34:52;30.57;;;15.70;;
5841;SDS011;2947;52.276;9.946;2024-03-08T00:37:22;28.50;;;14.10;;
5841;SDS011;2947;52.276;9.946;2024-03-08T00:39:51;30.10;;;16.87;;
5841;SDS011;2947;52.276;9.946;2024-03-08T00:42:18;29.97;;;14.77;;
5841;SDS011;2947;52.276;9.946;2024-03-08T00:44:45;36.63;;;13.83;;
5841;SDS011;2947;52.276;9.946;2024-03-08T00:47:13;27.13;;;14.33;;
5841;SDS011;2947;52.276;9.946;2024-03-08T00:49:40;33.20;;;14.60;;
5841;SDS011;2947;52.276;9.946;2024-03-08T00:52:06;38.13;;;15.47;;
5841;SDS011;2947;52.276;9.946;2024-03-08T00:54:33;30.67;;;14.70;;
5841;SDS011;2947;52.276;9.946;2024-03-08T00:57:00;29.63;;;15.00;;
5841;SDS011;2947;52.276;9.946;2024-03-08T00:59:28;36.67;;;15.77;;
5841;SDS011;2947;52.276;9.946;2024-03-08T01:01:57;31.07;;;14.50;;
5841;SDS011;2947;52.276;9.946;2024-03-08T01:04:25;33.40;;;13.77;;
5841;SDS011;2947;52.276;9.946;2024-03-08T01:06:58;43.30;;;14.17;;
5841;SDS011;2947;52.276;9.946;2024-03-08T01:09:24;33.60;;;14.73;;
5841;SDS011;2947;52.276;9.946;2024-03-08T01:11:51;39.23;;;15.60;;
5841;SDS011;2947;52.276;9.946;2024-03-08T01:14:21;38.77;;;15.87;;
5841;SDS011;2947;52.276;9.946;2024-03-08T01:16:48;31.27;;;13.80;;
5841;SDS011;2947;52.276;9.946;2024-03-08T01:19:15;30.57;;;13.57;;
5841;SDS011;2947;52.276;9.946;2024-03-08T01:21:42;34.33;;;15.47;;
5841;SDS011;2947;52.276;9.946;2024-03-08T01:24:07;26.60;;;13.87;;
5841;SDS011;2947;52.276;9.946;2024-03-08T01:26:33;33.00;;;15.43;;
5841;SDS011;2947;52.276;9.946;2024-03-08T01:28:59;33.00;;;14.70;;
5841;SDS011;2947;52.276;9.946;2024-03-08T01:31:28;35.37;;;15.43;;
5841;SDS011;2947;52.276;9.946;2024-03-08T01:33:57;27.97;;;13.17;;
5841;SDS011;2947;52.276;9.946;2024-03-08T01:36:23;31.40;;;15.80;;
5841;SDS011;2947;52.276;9.946;2024-03-08T01:38:50;32.57;;;15.50;;
5841;SDS011;2947;52.276;9.946;2024-03-08T01:41:22;30.40;;;15.20;;
5841;SDS011;2947;52.276;9.946;2024-03-08T01:43:48;41.30;;;15.60;;
5841;SDS011;2947;52.276;9.946;2024-03-08T01:46:15;31.20;;;16.20;;
5841;SDS011;2947;52.276;9.946;2024-03-08T01:48:44;33.13;;;15.13;;
5841;SDS011;2947;52.276;9.946;2024-03-08T01:51:10;35.07;;;16.30;;
5841;SDS011;2947;52.276;9.946;2024-03-08T01:53:37;29.83;;;14.37;;
5841;SDS011;2947;52.276;9.946;2024-03-08T01:56:03;34.07;;;13.00;;
5841;SDS011;2947;52.276;9.946;2024-03-08T01:58:31;31.90;;;15.40;;
5841;SDS011;2947;52.276;9.946;2024-03-08T02:00:58;32.03;;;14.90;;
5841;SDS011;2947;52.276;9.946;2024-03-08T02:03:24;36.17;;;15.00;;
5841;SDS011;2947;52.276;9.946;2024-03-08T02:05:50;36.20;;;18.13;;
5841;SDS011;2947;52.276;9.946;2024-03-08T02:08:19;40.40;;;15.30;;
5841;SDS011;2947;52.276;9.946;2024-03-08T02:10:47;33.03;;;17.07;;
5841;SDS011;2947;52.276;9.946;2024-03-08T02:13:14;31.30;;;16.07;;
5841;SDS011;2947;52.276;9.946;2024-03-08T02:15:56;33.37;;;16.10;;
5841;SDS011;2947;52.276;9.946;2024-03-08T02:18:24;34.10;;;15.73;;
5841;SDS011;2947;52.276;9.946;2024-03-08T02:20:55;37.17;;;15.90;;
5841;SDS011;2947;52.276;9.946;2024-03-08T02:23:22;37.57;;;16.73;;
5841;SDS011;2947;52.276;9.946;2024-03-08T02:25:52;29.83;;;14.60;;
5841;SDS011;2947;52.276;9.946;2024-03-08T02:28:19;33.40;;;15.97;;
5841;SDS011;2947;52.276;9.946;2024-03-08T02:30:47;38.37;;;17.00;;
5841;SDS011;2947;52.276;9.946;2024-03-08T02:33:19;31.37;;;15.10;;
5841;SDS011;2947;52.276;9.946;2024-03-08T02:35:45;31.47;;;13.47;;
5841;SDS011;2947;52.276;9.946;2024-03-08T02:38:14;39.93;;;16.07;;
5841;SDS011;2947;52.276;9.946;2024-03-08T02:40:42;35.50;;;16.27;;
5841;SDS011;2947;52.276;9.946;2024-03-08T02:43:09;37.23;;;15.93;;
5841;SDS011;2947;52.276;9.946;2024-03-08T02:45:36;41.93;;;17.20;;
5841;SDS011;2947;52.276;9.946;2024-03-08T02:48:02;31.47;;;16.23;;
5841;SDS011;2947;52.276;9.946;2024-03-08T02:50:31;41.50;;;15.20;;
5841;SDS011;2947;52.276;9.946;2024-03-08T02:52:58;30.37;;;14.70;;
5841;SDS011;2947;52.276;9.946;2024-03-08T02:55:24;29.47;;;14.97;;
5841;SDS011;2947;52.276;9.946;2024-03-08T02:57:51;27.57;;;11.70;;
5841;SDS011;2947;52.276;9.946;2024-03-08T03:00:19;33.47;;;14.60;;
5841;SDS011;2947;52.276;9.946;2024-03-08T03:02:47;42.47;;;14.47;;
5841;SDS011;2947;52.276;9.946;2024-03-08T03:05:19;30.83;;;13.97;;
5841;SDS011;2947;52.276;9.946;2024-03-08T03:07:49;39.07;;;15.70;;
5841;SDS011;2947;52.276;9.946;2024-03-08T03:10:18;31.03;;;16.13;;
5841;SDS011;2947;52.276;9.946;2024-03-08T03:12:45;33.30;;;14.70;;
5841;SDS011;2947;52.276;9.946;2024-03-08T03:15:11;40.90;;;16.20;;
5841;SDS011;2947;52.276;9.946;2024-03-08T03:17:38;38.30;;;16.60;;
5841;SDS011;2947;52.276;9.946;2024-03-08T03:20:07;35.87;;;15.20;;
5841;SDS011;2947;52.276;9.946;2024-03-08T03:22:39;42.97;;;16.40;;
5841;SDS011;2947;52.276;9.946;2024-03-08T03:25:12;37.50;;;15.53;;
5841;SDS011;2947;52.276;9.946;2024-03-08T03:27:37;33.77;;;15.93;;
5841;SDS011;2947;52.276;9.946;2024-03-08T03:30:05;38.80;;;15.70;;
5841;SDS011;2947;52.276;9.946;2024-03-08T03:32:47;28.33;;;13.83;;
5841;SDS011;2947;52.276;9.946;2024-03-08T03:35:15;28.87;;;14.37;;
5841;SDS011;2947;52.276;9.946;2024-03-08T03:37:45;39.00;;;16.70;;
5841;SDS011;2947;52.276;9.946;2024-03-08T03:40:31;38.33;;;15.73;;
5841;SDS011;2947;52.276;9.946;2024-03-08T03:43:07;31.80;;;14.83;;
5841;SDS011;2947;52.276;9.946;2024-03-08T03:45:35;35.13;;;15.63;;
5841;SDS011;2947;52.276;9.946;2024-03-08T03:48:02;33.70;;;15.80;;
5841;SDS011;2947;52.276;9.946;2024-03-08T03:50:31;30.80;;;14.87;;
5841;SDS011;2947;52.276;9.946;2024-03-08T03:53:00;32.40;;;16.17;;
5841;SDS011;2947;52.276;9.946;2024-03-08T03:55:27;30.17;;;13.37;;
5841;SDS011;2947;52.276;9.946;2024-03-08T03:57:53;34.13;;;15.50;;
5841;SDS011;2947;52.276;9.946;2024-03-08T04:00:20;31.00;;;14.97;;
5841;SDS011;2947;52.276;9.946;2024-03-08T04:02:45;36.73;;;16.93;;
5841;SDS011;2947;52.276;9.946;2024-03-08T04:05:11;34.27;;;17.20;;
5841;SDS011;2947;52.276;9.946;2024-03-08T04:07:38;34.70;;;15.40;;
5841;SDS011;2947;52.276;9.946;2024-03-08T04:10:04;33.60;;;16.17;;
5841;SDS011;2947;52.276;9.946;2024-03-08T04:12:35;34.80;;;16.13;;
5841;SDS011;2947;52.276;9.946;2024-03-08T04:15:02;32.70;;;15.97;;
5841;SDS011;2947;52.276;9.946;2024-03-08T04:17:32;35.40;;;16.10;;
5841;SDS011;2947;52.276;9.946;2024-03-08T04:20:08;33.37;;;14.53;;
5841;SDS011;2947;52.276;9.946;2024-03-08T04:22:38;35.87;;;15.93;;
5841;SDS011;2947;52.276;9.946;2024-03-08T04:25:04;37.23;;;15.63;;
5841;SDS011;2947;52.276;9.946;2024-03-08T04:27:34;20.43;;;10.67;;
5841;SDS011;2947;52.276;9.946;2024-03-08T04:30:01;35.77;;;16.80;;
5841;SDS011;2947;52.276;9.946;2024-03-08T04:32:27;35.03;;;13.67;;
5841;SDS011;2947;52.276;9.946;2024-03-08T04:34:57;27.37;;;11.30;;
5841;SDS011;2947;52.276;9.946;2024-03-08T04:37:23;36.60;;;16.47;;
5841;SDS011;2947;52.276;9.946;2024-03-08T04:39:50;38.63;;;15.20;;
5841;SDS011;2947;52.276;9.946;2024-03-08T04:42:17;35.77;;;16.13;;
5841;SDS011;2947;52.276;9.946;2024-03-08T04:44:43;35.47;;;16.07;;
5841;SDS011;2947;52.276;9.946;2024-03-08T04:47:09;35.90;;;16.07;;
5841;SDS011;2947;52.276;9.946;2024-03-08T04:49:36;10.53;;;5.47;;
5841;SDS011;2947;52.276;9.946;2024-03-08T04:52:02;31.53;;;14.87;;
5841;SDS011;2947;52.276;9.946;2024-03-08T04:54:29;36.30;;;14.87;;
5841;SDS011;2947;52.276;9.946;2024-03-08T04:56:55;32.87;;;15.03;;
5841;SDS011;2947;52.276;9.946;2024-03-08T04:59:21;32.47;;;13.73;;
5841;SDS011;2947;52.276;9.946;2024-03-08T05:01:47;35.27;;;15.27;;
5841;SDS011;2947;52.276;9.946;2024-03-08T05:04:13;35.47;;;15.80;;
5841;SDS011;2947;52.276;9.946;2024-03-08T05:06:40;35.30;;;16.33;;
5841;SDS011;2947;52.276;9.946;2024-03-08T05:09:06;34.23;;;15.73;;
5841;SDS011;2947;52.276;9.946;2024-03-08T05:11:44;29.43;;;13.20;;
5841;SDS011;2947;52.276;9.946;2024-03-08T05:14:12;31.60;;;14.03;;
5841;SDS011;2947;52.276;9.946;2024-03-08T05:16:45;44.23;;;17.33;;
5841;SDS011;2947;52.276;9.946;2024-03-08T05:19:14;37.47;;;17.17;;
5841;SDS011;2947;52.276;9.946;2024-03-08T05:21:42;42.07;;;19.60;;
5841;SDS011;2947;52.276;9.946;2024-03-08T05:24:13;44.67;;;17.33;;
5841;SDS011;2947;52.276;9.946;2024-03-08T05:26:42;39.80;;;16.23;;
5841;SDS011;2947;52.276;9.946;2024-03-08T05:29:08;34.40;;;16.77;;
5841;SDS011;2947;52.276;9.946;2024-03-08T05:31:52;39.53;;;17.33;;
5841;SDS011;2947;52.276;9.946;2024-03-08T05:34:18;35.90;;;15.63;;
5841;SDS011;2947;52.276;9.946;2024-03-08T05:36:46;43.27;;;19.60;;
5841;SDS011;2947;52.276;9.946;2024-03-08T05:39:15;38.77;;;18.03;;
5841;SDS011;2947;52.276;9.946;2024-03-08T05:41:43;44.80;;;17.60;;
5841;SDS011;2947;52.276;9.946;2024-03-08T05:44:09;39.77;;;17.33;;
5841;SDS011;2947;52.276;9.946;2024-03-08T05:46:36;30.20;;;16.13;;
5841;SDS011;2947;52.276;9.946;2024-03-08T05:49:03;42.23;;;18.83;;
5841;SDS011;2947;52.276;9.946;2024-03-08T05:51:34;43.20;;;18.47;;
5841;SDS011;2947;52.276;9.946;2024-03-08T05:54:02;31.63;;;15.40;;
5841;SDS011;2947;52.276;9.946;2024-03-08T05:56:35;36.53;;;15.83;;
5841;SDS011;2947;52.276;9.946;2024-03-08T05:59:02;41.00;;;18.53;;
5841;SDS011;2947;52.276;9.946;2024-03-08T06:01:28;47.77;;;20.20;;
5841;SDS011;2947;52.276;9.946;2024-03-08T06:03:55;37.43;;;17.37;;
5841;SDS011;2947;52.276;9.946;2024-03-08T06:06:22;34.53;;;16.13;;
5841;SDS011;2947;52.276;9.946;2024-03-08T06:08:49;39.40;;;17.00;;
5841;SDS011;2947;52.276;9.946;2024-03-08T06:11:16;42.63;;;18.57;;
5841;SDS011;2947;52.276;9.946;2024-03-08T06:13:43;36.90;;;17.20;;
5841;SDS011;2947;52.276;9.946;2024-03-08T06:16:10;40.67;;;18.50;;
5841;SDS011;2947;52.276;9.946;2024-03-08T06:18:36;45.07;;;19.37;;
5841;SDS011;2947;52.276;9.946;2024-03-08T06:21:03;50.13;;;20.30;;
5841;SDS011;2947;52.276;9.946;2024-03-08T06:23:31;39.87;;;18.23;;
5841;SDS011;2947;52.276;9.946;2024-03-08T06:26:03;40.83;;;17.23;;
5841;SDS011;2947;52.276;9.946;2024-03-08T06:28:29;36.63;;;17.53;;
5841;SDS011;2947;52.276;9.946;2024-03-08T06:30:57;40.83;;;18.67;;
5841;SDS011;2947;52.276;9.946;2024-03-08T06:33:24;51.20;;;19.00;;
5841;SDS011;2947;52.276;9.946;2024-03-08T06:35:55;42.23;;;20.07;;
5841;SDS011;2947;52.276;9.946;2024-03-08T06:38:25;38.70;;;19.63;;
5841;SDS011;2947;52.276;9.946;2024-03-08T06:40:51;44.50;;;20.43;;
5841;SDS011;2947;52.276;9.946;2024-03-08T06:43:20;43.23;;;19.47;;
5841;SDS011;2947;52.276;9.946;2024-03-08T06:45:46;33.93;;;15.93;;
5841;SDS011;2947;52.276;9.946;2024-03-08T06:48:15;35.90;;;17.90;;
5841;SDS011;2947;52.276;9.946;2024-03-08T06:50:42;36.37;;;16.70;;
5841;SDS011;2947;52.276;9.946;2024-03-08T06:53:10;38.27;;;18.70;;
5841;SDS011;2947;52.276;9.946;2024-03-08T06:55:36;47.80;;;19.97;;
5841;SDS011;2947;52.276;9.946;2024-03-08T06:58:02;43.00;;;19.77;;
5841;SDS011;2947;52.276;9.946;2024-03-08T07:00:29;34.80;;;18.10;;
5841;SDS011;2947;52.276;9.946;2024-03-08T07:02:55;41.17;;;18.57;;
5841;SDS011;2947;52.276;9.946;2024-03-08T07:05:25;34.70;;;15.10;;
5841;SDS011;2947;52.276;9.946;2024-03-08T07:07:55;42.03;;;18.83;;
5841;SDS011;2947;52.276;9.946;2024-03-08T07:10:21;35.73;;;18.30;;
5841;SDS011;2947;52.276;9.946;2024-03-08T07:12:53;41.33;;;19.57;;
5841;SDS011;2947;52.276;9.946;2024-03-08T07:15:19;45.93;;;18.50;;
5841;SDS011;2947;52.276;9.946;2024-03-08T07:17:46;35.03;;;18.57;;
5841;SDS011;2947;52.276;9.946;2024-03-08T07:20:12;45.57;;;18.70;;
5841;SDS011;2947;52.276;9.946;2024-03-08T07:22:40;43.47;;;18.63;;
5841;SDS011;2947;52.276;9.946;2024-03-08T07:25:06;34.10;;;17.10;;
5841;SDS011;2947;52.276;9.946;2024-03-08T07:27:49;39.47;;;19.47;;
5841;SDS011;2947;52.276;9.946;2024-03-08T07:30:26;37.03;;;18.10;;
5841;SDS011;2947;52.276;9.946;2024-03-08T07:33:11;44.40;;;18.57;;
5841;SDS011;2947;52.276;9.946;2024-03-08T07:35:37;45.57;;;19.80;;
5841;SDS011;2947;52.276;9.946;2024-03-08T07:38:07;42.10;;;18.93;;
5841;SDS011;2947;52.276;9.946;2024-03-08T07:40:40;34.10;;;18.33;;
5841;SDS011;2947;52.276;9.946;2024-03-08T07:43:12;47.10;;;21.67;;
5841;SDS011;2947;52.276;9.946;2024-03-08T07:45:38;38.27;;;18.63;;
5841;SDS011;2947;52.276;9.946;2024-03-08T07:48:04;42.97;;;22.43;;
5841;SDS011;2947;52.276;9.946;2024-03-08T07:50:38;28.43;;;12.73;;
5841;SDS011;2947;52.276;9.946;2024-03-08T07:53:05;29.87;;;14.63;;
5841;SDS011;2947;52.276;9.946;2024-03-08T07:55:32;42.53;;;17.27;;
5841;SDS011;2947;52.276;9.946;2024-03-08T07:58:00;38.13;;;18.23;;
5841;SDS011;2947;52.276;9.946;2024-03-08T08:00:26;39.00;;;19.60;;
5841;SDS011;2947;52.276;9.946;2024-03-08T08:02:52;39.87;;;19.43;;
5841;SDS011;2947;52.276;9.946;2024-03-08T08:05:19;41.20;;;19.73;;
5841;SDS011;2947;52.276;9.946;2024-03-08T08:07:45;39.10;;;18.53;;
5841;SDS011;2947;52.276;9.946;2024-03-08T08:10:14;37.90;;;19.40;;
5841;SDS011;2947;52.276;9.946;2024-03-08T08:12:46;29.30;;;16.47;;
5841;SDS011;2947;52.276;9.946;2024-03-08T08:15:14;37.10;;;17.57;;
5841;SDS011;2947;52.276;9.946;2024-03-08T08:17:43;36.33;;;19.47;;
5841;SDS011;2947;52.276;9.946;2024-03-08T08:20:11;37.43;;;15.30;;
5841;SDS011;2947;52.276;9.946;2024-03-08T08:22:41;35.97;;;16.70;;
5841;SDS011;2947;52.276;9.946;2024-03-08T08:25:10;35.87;;;17.60;;
5841;SDS011;2947;52.276;9.946;2024-03-08T08:27:40;38.00;;;18.13;;
5841;SDS011;2947;52.276;9.946;2024-03-08T08:30:07;40.63;;;18.40;;
5841;SDS011;2947;52.276;9.946;2024-03-08T08:32:34;37.77;;;18.40;;
5841;SDS011;2947;52.276;9.946;2024-03-08T08:35:09;34.93;;;19.23;;
5841;SDS011;2947;52.276;9.946;2024-03-08T08:37:38;34.83;;;18.30;;
5841;SDS011;2947;52.276;9.946;2024-03-08T08:40:04;36.23;;;20.00;;
5841;SDS011;2947;52.276;9.946;2024-03-08T08:42:35;40.23;;;20.17;;
5841;SDS011;2947;52.276;9.946;2024-03-08T08:45:05;42.23;;;21.03;;
5841;SDS011;2947;52.276;9.946;2024-03-08T08:47:37;35.90;;;18.50;;
5841;SDS011;2947;52.276;9.946;2024-03-08T08:50:03;38.73;;;19.53;;
5841;SDS011;2947;52.276;9.946;2024-03-08T08:52:33;42.60;;;19.33;;
5841;SDS011;2947;52.276;9.946;2024-03-08T08:54:59;35.87;;;18.37;;
5841;SDS011;2947;52.276;9.946;2024-03-08T08:57:25;40.83;;;20.50;;
5841;SDS011;2947;52.276;9.946;2024-03-08T08:59:53;44.63;;;19.47;;
5841;SDS011;2947;52.276;9.946;2024-03-08T09:02:18;40.50;;;21.40;;
5841;SDS011;2947;52.276;9.946;2024-03-08T09:04:46;40.23;;;18.47;;
5841;SDS011;2947;52.276;9.946;2024-03-08T09:07:13;36.87;;;19.00;;
5841;SDS011;2947;52.276;9.946;2024-03-08T09:09:39;35.77;;;17.40;;
5841;SDS011;2947;52.276;9.946;2024-03-08T09:12:05;33.10;;;16.67;;
5841;SDS011;2947;52.276;9.946;2024-03-08T09:14:31;43.93;;;22.43;;
5841;SDS011;2947;52.276;9.946;2024-03-08T09:16:56;36.03;;;18.77;;
5841;SDS011;2947;52.276;9.946;2024-03-08T09:19:22;37.13;;;20.10;;
5841;SDS011;2947;52.276;9.946;2024-03-08T09:21:50;36.20;;;19.43;;
5841;SDS011;2947;52.276;9.946;2024-03-08T09:24:16;34.40;;;18.40;;
5841;SDS011;2947;52.276;9.946;2024-03-08T09:26:42;33.30;;;18.47;;
5841;SDS011;2947;52.276;9.946;2024-03-08T09:29:08;42.57;;;20.40;;
5841;SDS011;2947;52.276;9.946;2024-03-08T09:31:35;34.97;;;18.57;;
5841;SDS011;2947;52.276;9.946;2024-03-08T09:34:03;33.93;;;17.97;;
5841;SDS011;2947;52.276;9.946;2024-03-08T09:36:29;34.43;;;19.27;;
5841;SDS011;2947;52.276;9.946;2024-03-08T09:38:57;44.83;;;18.33;;
5841;SDS011;2947;52.276;9.946;2024-03-08T09:41:23;33.47;;;18.17;;
5841;SDS011;2947;52.276;9.946;2024-03-08T09:43:48;35.27;;;19.57;;
5841;SDS011;2947;52.276;9.946;2024-03-08T09:46:14;34.27;;;17.73;;
5841;SDS011;2947;52.276;9.946;2024-03-08T09:48:40;38.00;;;17.60;;
5841;SDS011;2947;52.276;9.946;2024-03-08T09:51:06;39.33;;;20.10;;
5841;SDS011;2947;52.276;9.946;2024-03-08T09:53:33;36.43;;;19.03;;
5841;SDS011;2947;52.276;9.946;2024-03-08T09:56:00;37.70;;;20.10;;
5841;SDS011;2947;52.276;9.946;2024-03-08T09:58:28;37.80;;;18.47;;
5841;SDS011;2947;52.276;9.946;2024-03-08T10:00:57;31.97;;;16.80;;
5841;SDS011;2947;52.276;9.946;2024-03-08T10:03:23;36.33;;;19.00;;
5841;SDS011;2947;52.276;9.946;2024-03-08T10:05:52;42.23;;;20.73;;
5841;SDS011;2947;52.276;9.946;2024-03-08T10:08:21;40.40;;;17.40;;
5841;SDS011;2947;52.276;9.946;2024-03-08T10:10:50;37.67;;;20.03;;
5841;SDS011;2947;52.276;9.946;2024-03-08T10:13:16;34.97;;;18.40;;
5841;SDS011;2947;52.276;9.946;2024-03-08T10:15:44;32.53;;;16.30;;
5841;SDS011;2947;52.276;9.946;2024-03-08T10:18:10;39.37;;;20.33;;
5841;SDS011;2947;52.276;9.946;2024-03-08T10:20:36;47.67;;;21.10;;
5841;SDS011;2947;52.276;9.946;2024-03-08T10:23:02;33.50;;;17.17;;
5841;SDS011;2947;52.276;9.946;2024-03-08T10:25:32;44.33;;;20.47;;
5841;SDS011;2947;52.276;9.946;2024-03-08T10:27:59;38.57;;;21.13;;
5841;SDS011;2947;52.276;9.946;2024-03-08T10:30:29;42.20;;;22.30;;
5841;SDS011;2947;52.276;9.946;2024-03-08T10:32:55;34.60;;;16.47;;
5841;SDS011;2947;52.276;9.946;2024-03-08T10:35:21;38.00;;;20.80;;
5841;SDS011;2947;52.276;9.946;2024-03-08T10:37:49;50.43;;;21.00;;
5841;SDS011;2947;52.276;9.946;2024-03-08T10:40:24;40.07;;;19.57;;
5841;SDS011;2947;52.276;9.946;2024-03-08T10:42:55;42.77;;;20.70;;
5841;SDS011;2947;52.276;9.946;2024-03-08T10:45:36;35.00;;;18.00;;
5841;SDS011;2947;52.276;9.946;2024-03-08T10:51:04;37.53;;;18.17;;
5841;SDS011;2947;52.276;9.946;2024-03-08T10:53:32;42.97;;;20.80;;
5841;SDS011;2947;52.276;9.946;2024-03-08T10:55:59;37.33;;;20.17;;
5841;SDS011;2947;52.276;9.946;2024-03-08T10:58:26;35.40;;;20.03;;
5841;SDS011;2947;52.276;9.946;2024-03-08T11:00:53;39.10;;;19.50;;
5841;SDS011;2947;52.276;9.946;2024-03-08T11:06:09;35.00;;;18.00;;
5841;SDS011;2947;52.276;9.946;2024-03-08T11:08:43;32.93;;;18.60;;
5841;SDS011;2947;52.276;9.946;2024-03-08T11:13:59;32.87;;;18.23;;
5841;SDS011;2947;52.276;9.946;2024-03-08T11:19:00;30.93;;;15.13;;
5841;SDS011;2947;52.276;9.946;2024-03-08T11:21:35;29.90;;;15.97;;
5841;SDS011;2947;52.276;9.946;2024-03-08T11:24:09;31.93;;;17.43;;
5841;SDS011;2947;52.276;9.946;2024-03-08T11:26:39;33.13;;;18.70;;
5841;SDS011;2947;52.276;9.946;2024-03-08T11:32:12;28.30;;;16.27;;
5841;SDS011;2947;52.276;9.946;2024-03-08T11:34:42;36.30;;;20.27;;
5841;SDS011;2947;52.276;9.946;2024-03-08T11:37:15;31.67;;;18.97;;
5841;SDS011;2947;52.276;9.946;2024-03-08T11:39:53;32.90;;;16.47;;
5841;SDS011;2947;52.276;9.946;2024-03-08T11:42:24;31.07;;;18.93;;
5841;SDS011;2947;52.276;9.946;2024-03-08T11:44:53;39.20;;;17.47;;
5841;SDS011;2947;52.276;9.946;2024-03-08T11:47:20;31.53;;;17.03;;
5841;SDS011;2947;52.276;9.946;2024-03-08T11:49:46;33.80;;;18.97;;
5841;SDS011;2947;52.276;9.946;2024-03-08T11:52:17;34.77;;;18.40;;
5841;SDS011;2947;52.276;9.946;2024-03-08T11:55:02;39.20;;;18.53;;
5841;SDS011;2947;52.276;9.946;2024-03-08T11:57:33;32.93;;;18.17;;
5841;SDS011;2947;52.276;9.946;2024-03-08T11:59:59;33.90;;;18.50;;
5841;SDS011;2947;52.276;9.946;2024-03-08T12:02:34;35.50;;;18.33;;
5841;SDS011;2947;52.276;9.946;2024-03-08T12:05:02;33.47;;;18.60;;
5841;SDS011;2947;52.276;9.946;2024-03-08T12:07:35;36.87;;;20.23;;
5841;SDS011;2947;52.276;9.946;2024-03-08T12:10:14;32.30;;;17.70;;
5841;SDS011;2947;52.276;9.946;2024-03-08T12:12:48;29.47;;;17.93;;
5841;SDS011;2947;52.276;9.946;2024-03-08T12:15:17;33.33;;;18.90;;
5841;SDS011;2947;52.276;9.946;2024-03-08T12:17:48;42.50;;;19.23;;
5841;SDS011;2947;52.276;9.946;2024-03-08T12:20:18;33.57;;;18.27;;
5841;SDS011;2947;52.276;9.946;2024-03-08T12:22:50;34.73;;;18.30;;
5841;SDS011;2947;52.276;9.946;2024-03-08T12:25:32;29.97;;;16.43;;
5841;SDS011;2947;52.276;9.946;2024-03-08T12:28:08;34.77;;;17.60;;
5841;SDS011;2947;52.276;9.946;2024-03-08T12:30:52;34.53;;;18.50;;
5841;SDS011;2947;52.276;9.946;2024-03-08T12:33:21;32.90;;;17.67;;
5841;SDS011;2947;52.276;9.946;2024-03-08T12:35:50;29.57;;;15.70;;
5841;SDS011;2947;52.276;9.946;2024-03-08T12:38:19;28.37;;;14.83;;
5841;SDS011;2947;52.276;9.946;2024-03-08T12:40:50;30.70;;;16.90;;
5841;SDS011;2947;52.276;9.946;2024-03-08T12:43:20;31.80;;;17.90;;
5841;SDS011;2947;52.276;9.946;2024-03-08T12:45:46;30.00;;;17.67;;
5841;SDS011;2947;52.276;9.946;2024-03-08T12:48:14;28.47;;;16.50;;
5841;SDS011;2947;52.276;9.946;2024-03-08T12:50:40;29.33;;;16.27;;
5841;SDS011;2947;52.276;9.946;2024-03-08T12:53:10;31.40;;;17.80;;
5841;SDS011;2947;52.276;9.946;2024-03-08T12:55:36;30.77;;;18.00;;
5841;SDS011;2947;52.276;9.946;2024-03-08T12:58:02;32.30;;;17.20;;
5841;SDS011;2947;52.276;9.946;2024-03-08T13:00:28;32.20;;;19.43;;
5841;SDS011;2947;52.276;9.946;2024-03-08T13:02:54;31.23;;;16.60;;
5841;SDS011;2947;52.276;9.946;2024-03-08T13:05:20;32.50;;;17.13;;
5841;SDS011;2947;52.276;9.946;2024-03-08T13:07:46;32.90;;;17.50;;
5841;SDS011;2947;52.276;9.946;2024-03-08T13:10:16;29.20;;;17.43;;
5841;SDS011;2947;52.276;9.946;2024-03-08T13:12:44;31.30;;;16.33;;
5841;SDS011;2947;52.276;9.946;2024-03-08T13:15:10;25.90;;;15.93;;
5841;SDS011;2947;52.276;9.946;2024-03-08T13:17:40;26.83;;;14.80;;
5841;SDS011;2947;52.276;9.946;2024-03-08T13:20:07;32.30;;;16.20;;
5841;SDS011;2947;52.276;9.946;2024-03-08T13:22:34;27.80;;;15.23;;
5841;SDS011;2947;52.276;9.946;2024-03-08T13:25:01;33.90;;;17.23;;
5841;SDS011;2947;52.276;9.946;2024-03-08T13:27:28;31.87;;;18.23;;
5841;SDS011;2947;52.276;9.946;2024-03-08T13:29:54;27.37;;;15.80;;
5841;SDS011;2947;52.276;9.946;2024-03-08T13:32:19;24.33;;;14.57;;
5841;SDS011;2947;52.276;9.946;2024-03-08T13:34:45;28.40;;;15.63;;
5841;SDS011;2947;52.276;9.946;2024-03-08T13:37:16;24.30;;;13.70;;
5841;SDS011;2947;52.276;9.946;2024-03-08T13:39:42;29.53;;;14.43;;
5841;SDS011;2947;52.276;9.946;2024-03-08T13:42:11;24.90;;;14.27;;
5841;SDS011;2947;52.276;9.946;2024-03-08T13:44:47;28.03;;;14.73;;
5841;SDS011;2947;52.276;9.946;2024-03-08T13:47:18;29.83;;;15.20;;
5841;SDS011;2947;52.276;9.946;2024-03-08T13:49:44;24.77;;;12.37;;
5841;SDS011;2947;52.276;9.946;2024-03-08T13:52:11;22.93;;;13.30;;
5841;SDS011;2947;52.276;9.946;2024-03-08T13:54:41;27.67;;;15.80;;
5841;SDS011;2947;52.276;9.946;2024-03-08T13:57:08;25.93;;;14.43;;
5841;SDS011;2947;52.276;9.946;2024-03-08T13:59:34;27.10;;;16.50;;
5841;SDS011;2947;52.276;9.946;2024-03-08T14:02:00;31.70;;;14.67;;
5841;SDS011;2947;52.276;9.946;2024-03-08T14:04:30;27.50;;;15.37;;
5841;SDS011;2947;52.276;9.946;2024-03-08T14:06:56;27.47;;;16.07;;
5841;SDS011;2947;52.276;9.946;2024-03-08T14:09:26;27.10;;;16.50;;
5841;SDS011;2947;52.276;9.946;2024-03-08T14:11:54;28.37;;;15.20;;
5841;SDS011;2947;52.276;9.946;2024-03-08T14:14:23;23.60;;;13.97;;
5841;SDS011;2947;52.276;9.946;2024-03-08T14:16:49;23.17;;;12.87;;
5841;SDS011;2947;52.276;9.946;2024-03-08T14:19:20;24.63;;;15.23;;
5841;SDS011;2947;52.276;9.946;2024-03-08T14:21:46;27.83;;;14.57;;
5841;SDS011;2947;52.276;9.946;2024-03-08T14:24:17;23.57;;;12.17;;
5841;SDS011;2947;52.276;9.946;2024-03-08T14:26:43;32.13;;;16.53;;
5841;SDS011;2947;52.276;9.946;2024-03-08T14:29:10;24.97;;;12.20;;
5841;SDS011;2947;52.276;9.946;2024-03-08T14:31:36;25.83;;;14.27;;
5841;SDS011;2947;52.276;9.946;2024-03-08T14:34:02;27.27;;;14.73;;
5841;SDS011;2947;52.276;9.946;2024-03-08T14:36:28;27.20;;;15.30;;
5841;SDS011;2947;52.276;9.946;2024-03-08T14:38:54;28.43;;;14.87;;
5841;SDS011;2947;52.276;9.946;2024-03-08T14:41:20;23.80;;;12.83;;
5841;SDS011;2947;52.276;9.946;2024-03-08T14:43:48;24.80;;;15.30;;
5841;SDS011;2947;52.276;9.946;2024-03-08T14:46:14;26.57;;;14.80;;
5841;SDS011;2947;52.276;9.946;2024-03-08T14:48:49;27.27;;;14.77;;
5841;SDS011;2947;52.276;9.946;2024-03-08T14:51:18;25.70;;;15.40;;
5841;SDS011;2947;52.276;9.946;2024-03-08T14:53:47;27.00;;;14.97;;
5841;SDS011;2947;52.276;9.946;2024-03-08T14:56:14;29.07;;;15.07;;
5841;SDS011;2947;52.276;9.946;2024-03-08T14:58:44;26.47;;;15.20;;
5841;SDS011;2947;52.276;9.946;2024-03-08T15:01:11;34.20;;;15.00;;
5841;SDS011;2947;52.276;9.946;2024-03-08T15:03:41;21.57;;;12.40;;
5841;SDS011;2947;52.276;9.946;2024-03-08T15:06:10;27.90;;;15.20;;
5841;SDS011;2947;52.276;9.946;2024-03-08T15:08:39;24.30;;;13.23;;